sensor_id;sensor_type;location;lat;lon;timestamp;temperature;humidity
16243;DHT22;11719;51.052;6.982;2023-04-06T00:02:12;11.80;94.70
16243;DHT22;11719;51.052;6.982;2023-04-06T00:04:38;11.70;95.10
16243;DHT22;11719;51.052;6.982;2023-04-06T00:07:04;11.70;95.30
16243;DHT22;11719;51.052;6.982;2023-04-06T00:09:29;11.70;95.70
16243;DHT22;11719;51.052;6.982;2023-04-06T00:11:55;11.80;95.00
16243;DHT22;11719;51.052;6.982;2023-04-06T00:14:21;11.70;95.10
16243;DHT22;11719;51.052;6.982;2023-04-06T00:16:47;11.70;95.40
16243;DHT22;11719;51.052;6.982;2023-04-06T00:19:13;11.70;95.90
16243;DHT22;11719;51.052;6.982;2023-04-06T00:21:39;11.90;95.50
16243;DHT22;11719;51.052;6.982;2023-04-06T00:24:05;12.00;95.70
16243;DHT22;11719;51.052;6.982;2023-04-06T00:26:31;12.10;95.40
16243;DHT22;11719;51.052;6.982;2023-04-06T00:28:56;12.30;95.30
16243;DHT22;11719;51.052;6.982;2023-04-06T00:31:24;12.40;95.70
16243;DHT22;11719;51.052;6.982;2023-04-06T00:33:50;12.50;94.90
16243;DHT22;11719;51.052;6.982;2023-04-06T00:36:15;12.60;95.40
16243;DHT22;11719;51.052;6.982;2023-04-06T00:38:41;12.60;95.40
16243;DHT22;11719;51.052;6.982;2023-04-06T00:41:07;12.70;93.90
16243;DHT22;11719;51.052;6.982;2023-04-06T00:43:33;12.70;93.70
16243;DHT22;11719;51.052;6.982;2023-04-06T00:45:58;12.70;94.30
16243;DHT22;11719;51.052;6.982;2023-04-06T00:48:24;12.70;93.90
16243;DHT22;11719;51.052;6.982;2023-04-06T00:50:50;12.60;93.40
16243;DHT22;11719;51.052;6.982;2023-04-06T00:53:16;12.40;94.10
16243;DHT22;11719;51.052;6.982;2023-04-06T00:55:42;12.40;94.50
16243;DHT22;11719;51.052;6.982;2023-04-06T00:58:08;12.30;94.10
16243;DHT22;11719;51.052;6.982;2023-04-06T01:00:34;12.30;93.90
16243;DHT22;11719;51.052;6.982;2023-04-06T01:03:00;12.30;93.60
16243;DHT22;11719;51.052;6.982;2023-04-06T01:05:26;12.20;94.60
16243;DHT22;11719;51.052;6.982;2023-04-06T01:07:52;12.20;95.00
16243;DHT22;11719;51.052;6.982;2023-04-06T01:10:28;12.20;93.70
16243;DHT22;11719;51.052;6.982;2023-04-06T01:12:54;12.00;93.10
16243;DHT22;11719;51.052;6.982;2023-04-06T01:15:21;11.70;92.90
16243;DHT22;11719;51.052;6.982;2023-04-06T01:17:47;11.60;93.90
16243;DHT22;11719;51.052;6.982;2023-04-06T01:20:13;11.50;94.70
16243;DHT22;11719;51.052;6.982;2023-04-06T01:22:39;11.40;95.00
16243;DHT22;11719;51.052;6.982;2023-04-06T01:25:06;11.40;96.10
16243;DHT22;11719;51.052;6.982;2023-04-06T01:27:32;11.40;95.10
16243;DHT22;11719;51.052;6.982;2023-04-06T01:29:58;11.30;94.40
16243;DHT22;11719;51.052;6.982;2023-04-06T01:32:25;11.10;95.70
16243;DHT22;11719;51.052;6.982;2023-04-06T01:34:50;11.10;95.20
16243;DHT22;11719;51.052;6.982;2023-04-06T01:37:16;10.90;94.40
16243;DHT22;11719;51.052;6.982;2023-04-06T01:39:43;10.90;94.40
16243;DHT22;11719;51.052;6.982;2023-04-06T01:42:10;10.80;95.70
16243;DHT22;11719;51.052;6.982;2023-04-06T01:44:35;10.70;94.60
16243;DHT22;11719;51.052;6.982;2023-04-06T01:47:02;10.70;95.70
16243;DHT22;11719;51.052;6.982;2023-04-06T01:49:28;10.70;95.00
16243;DHT22;11719;51.052;6.982;2023-04-06T01:51:54;10.50;96.00
16243;DHT22;11719;51.052;6.982;2023-04-06T01:54:20;10.50;96.30
16243;DHT22;11719;51.052;6.982;2023-04-06T01:56:46;10.40;96.80
16243;DHT22;11719;51.052;6.982;2023-04-06T01:59:12;10.50;96.40
16243;DHT22;11719;51.052;6.982;2023-04-06T02:01:38;10.50;96.40
16243;DHT22;11719;51.052;6.982;2023-04-06T02:04:04;10.50;96.80
16243;DHT22;11719;51.052;6.982;2023-04-06T02:06:30;10.60;97.10
16243;DHT22;11719;51.052;6.982;2023-04-06T02:08:56;10.60;98.20
16243;DHT22;11719;51.052;6.982;2023-04-06T02:11:22;10.60;96.70
16243;DHT22;11719;51.052;6.982;2023-04-06T02:13:48;10.50;96.00
16243;DHT22;11719;51.052;6.982;2023-04-06T02:16:14;10.40;96.40
16243;DHT22;11719;51.052;6.982;2023-04-06T02:18:41;10.40;95.00
16243;DHT22;11719;51.052;6.982;2023-04-06T02:21:07;10.30;96.50
16243;DHT22;11719;51.052;6.982;2023-04-06T02:23:33;10.10;93.50
16243;DHT22;11719;51.052;6.982;2023-04-06T02:25:58;10.10;96.60
16243;DHT22;11719;51.052;6.982;2023-04-06T02:28:24;10.00;96.00
16243;DHT22;11719;51.052;6.982;2023-04-06T02:30:50;10.00;97.00
16243;DHT22;11719;51.052;6.982;2023-04-06T02:33:16;9.90;97.70
16243;DHT22;11719;51.052;6.982;2023-04-06T02:35:44;9.90;96.60
16243;DHT22;11719;51.052;6.982;2023-04-06T02:38:11;9.90;97.90
16243;DHT22;11719;51.052;6.982;2023-04-06T02:40:36;9.90;98.00
16243;DHT22;11719;51.052;6.982;2023-04-06T02:43:02;10.10;99.60
16243;DHT22;11719;51.052;6.982;2023-04-06T02:45:28;10.30;98.00
16243;DHT22;11719;51.052;6.982;2023-04-06T02:47:54;10.40;97.70
16243;DHT22;11719;51.052;6.982;2023-04-06T02:50:20;10.40;98.80
16243;DHT22;11719;51.052;6.982;2023-04-06T02:52:46;10.60;98.70
16243;DHT22;11719;51.052;6.982;2023-04-06T02:55:12;10.60;97.00
16243;DHT22;11719;51.052;6.982;2023-04-06T02:57:38;10.50;95.90
16243;DHT22;11719;51.052;6.982;2023-04-06T03:00:04;10.40;96.20
16243;DHT22;11719;51.052;6.982;2023-04-06T03:02:30;10.30;96.20
16243;DHT22;11719;51.052;6.982;2023-04-06T03:04:56;10.30;96.30
16243;DHT22;11719;51.052;6.982;2023-04-06T03:07:22;10.20;95.50
16243;DHT22;11719;51.052;6.982;2023-04-06T03:09:48;10.00;95.40
16243;DHT22;11719;51.052;6.982;2023-04-06T03:12:14;9.80;94.70
16243;DHT22;11719;51.052;6.982;2023-04-06T03:14:39;9.60;95.60
16243;DHT22;11719;51.052;6.982;2023-04-06T03:17:05;9.50;95.60
16243;DHT22;11719;51.052;6.982;2023-04-06T03:19:31;9.40;97.10
16243;DHT22;11719;51.052;6.982;2023-04-06T03:21:57;9.30;96.50
16243;DHT22;11719;51.052;6.982;2023-04-06T03:24:23;9.20;97.50
16243;DHT22;11719;51.052;6.982;2023-04-06T03:26:48;9.30;98.10
16243;DHT22;11719;51.052;6.982;2023-04-06T03:29:14;9.20;97.80
16243;DHT22;11719;51.052;6.982;2023-04-06T03:31:40;9.20;96.50
16243;DHT22;11719;51.052;6.982;2023-04-06T03:34:06;9.10;99.20
16243;DHT22;11719;51.052;6.982;2023-04-06T03:36:33;9.20;98.40
16243;DHT22;11719;51.052;6.982;2023-04-06T03:39:00;9.20;98.20
16243;DHT22;11719;51.052;6.982;2023-04-06T03:41:25;9.20;97.90
16243;DHT22;11719;51.052;6.982;2023-04-06T03:43:52;9.10;98.40
16243;DHT22;11719;51.052;6.982;2023-04-06T03:46:18;9.10;99.30
16243;DHT22;11719;51.052;6.982;2023-04-06T03:48:44;9.30;98.50
16243;DHT22;11719;51.052;6.982;2023-04-06T03:51:11;9.10;96.90
16243;DHT22;11719;51.052;6.982;2023-04-06T03:53:36;9.10;98.60
16243;DHT22;11719;51.052;6.982;2023-04-06T03:56:02;9.10;98.00
16243;DHT22;11719;51.052;6.982;2023-04-06T03:58:28;9.10;98.30
16243;DHT22;11719;51.052;6.982;2023-04-06T04:00:54;9.10;99.90
16243;DHT22;11719;51.052;6.982;2023-04-06T04:03:20;9.30;99.90
16243;DHT22;11719;51.052;6.982;2023-04-06T04:05:49;9.50;99.90
16243;DHT22;11719;51.052;6.982;2023-04-06T04:08:15;9.80;99.90
16243;DHT22;11719;51.052;6.982;2023-04-06T04:10:41;10.00;99.70
16243;DHT22;11719;51.052;6.982;2023-04-06T04:13:07;10.20;98.40
16243;DHT22;11719;51.052;6.982;2023-04-06T04:15:33;10.40;99.90
16243;DHT22;11719;51.052;6.982;2023-04-06T04:17:58;10.70;99.70
16243;DHT22;11719;51.052;6.982;2023-04-06T04:20:24;10.90;98.20
16243;DHT22;11719;51.052;6.982;2023-04-06T04:22:50;10.90;96.90
16243;DHT22;11719;51.052;6.982;2023-04-06T04:25:16;10.80;98.80
16243;DHT22;11719;51.052;6.982;2023-04-06T04:27:42;10.80;99.10
16243;DHT22;11719;51.052;6.982;2023-04-06T04:30:08;11.00;98.00
16243;DHT22;11719;51.052;6.982;2023-04-06T04:32:34;11.00;96.70
16243;DHT22;11719;51.052;6.982;2023-04-06T04:35:00;11.00;96.50
16243;DHT22;11719;51.052;6.982;2023-04-06T04:37:25;10.70;98.30
16243;DHT22;11719;51.052;6.982;2023-04-06T04:39:51;10.70;96.50
16243;DHT22;11719;51.052;6.982;2023-04-06T04:42:17;10.60;96.80
16243;DHT22;11719;51.052;6.982;2023-04-06T04:44:43;10.50;98.30
16243;DHT22;11719;51.052;6.982;2023-04-06T04:47:09;10.60;98.00
16243;DHT22;11719;51.052;6.982;2023-04-06T04:49:35;10.50;98.10
16243;DHT22;11719;51.052;6.982;2023-04-06T04:52:01;10.70;97.90
16243;DHT22;11719;51.052;6.982;2023-04-06T04:54:26;10.80;98.10
16243;DHT22;11719;51.052;6.982;2023-04-06T04:56:52;11.00;98.20
16243;DHT22;11719;51.052;6.982;2023-04-06T04:59:18;11.20;97.60
16243;DHT22;11719;51.052;6.982;2023-04-06T05:01:44;11.10;96.90
16243;DHT22;11719;51.052;6.982;2023-04-06T05:04:10;11.10;96.40
16243;DHT22;11719;51.052;6.982;2023-04-06T05:06:36;10.70;93.60
16243;DHT22;11719;51.052;6.982;2023-04-06T05:09:01;10.70;97.90
16243;DHT22;11719;51.052;6.982;2023-04-06T05:11:27;10.70;98.00
16243;DHT22;11719;51.052;6.982;2023-04-06T05:13:53;10.80;98.10
16243;DHT22;11719;51.052;6.982;2023-04-06T05:16:19;10.90;99.80
16243;DHT22;11719;51.052;6.982;2023-04-06T05:18:47;11.10;98.70
16243;DHT22;11719;51.052;6.982;2023-04-06T05:21:13;11.20;97.90
16243;DHT22;11719;51.052;6.982;2023-04-06T05:23:39;11.20;97.80
16243;DHT22;11719;51.052;6.982;2023-04-06T05:26:05;11.00;94.90
16243;DHT22;11719;51.052;6.982;2023-04-06T05:28:32;11.00;99.20
16243;DHT22;11719;51.052;6.982;2023-04-06T05:30:58;11.20;97.80
16243;DHT22;11719;51.052;6.982;2023-04-06T05:33:24;11.30;97.80
16243;DHT22;11719;51.052;6.982;2023-04-06T05:35:50;11.40;97.80
16243;DHT22;11719;51.052;6.982;2023-04-06T05:38:16;11.60;95.40
16243;DHT22;11719;51.052;6.982;2023-04-06T05:40:42;11.50;96.50
16243;DHT22;11719;51.052;6.982;2023-04-06T05:43:08;11.40;95.90
16243;DHT22;11719;51.052;6.982;2023-04-06T05:45:33;11.50;99.30
16243;DHT22;11719;51.052;6.982;2023-04-06T05:48:00;11.70;97.50
16243;DHT22;11719;51.052;6.982;2023-04-06T05:50:27;11.90;94.60
16243;DHT22;11719;51.052;6.982;2023-04-06T05:52:54;11.80;94.40
16243;DHT22;11719;51.052;6.982;2023-04-06T05:55:19;11.70;95.60
16243;DHT22;11719;51.052;6.982;2023-04-06T05:57:45;11.40;93.60
16243;DHT22;11719;51.052;6.982;2023-04-06T06:00:12;11.20;93.90
16243;DHT22;11719;51.052;6.982;2023-04-06T06:02:38;10.90;94.90
16243;DHT22;11719;51.052;6.982;2023-04-06T06:05:05;10.80;96.40
16243;DHT22;11719;51.052;6.982;2023-04-06T06:07:31;10.70;97.20
16243;DHT22;11719;51.052;6.982;2023-04-06T06:09:57;10.70;95.50
16243;DHT22;11719;51.052;6.982;2023-04-06T06:12:23;11.00;99.30
16243;DHT22;11719;51.052;6.982;2023-04-06T06:14:49;11.30;98.40
16243;DHT22;11719;51.052;6.982;2023-04-06T06:17:15;11.40;94.20
16243;DHT22;11719;51.052;6.982;2023-04-06T06:19:41;11.20;95.20
16243;DHT22;11719;51.052;6.982;2023-04-06T06:22:07;11.20;97.80
16243;DHT22;11719;51.052;6.982;2023-04-06T06:24:33;11.50;98.00
16243;DHT22;11719;51.052;6.982;2023-04-06T06:26:59;11.80;98.60
16243;DHT22;11719;51.052;6.982;2023-04-06T06:29:25;12.30;98.10
16243;DHT22;11719;51.052;6.982;2023-04-06T06:31:50;12.60;97.90
16243;DHT22;11719;51.052;6.982;2023-04-06T06:34:16;12.90;93.00
16243;DHT22;11719;51.052;6.982;2023-04-06T06:36:42;13.10;94.80
16243;DHT22;11719;51.052;6.982;2023-04-06T06:39:08;13.30;93.40
16243;DHT22;11719;51.052;6.982;2023-04-06T06:41:34;13.10;92.80
16243;DHT22;11719;51.052;6.982;2023-04-06T06:43:59;13.30;95.20
16243;DHT22;11719;51.052;6.982;2023-04-06T06:46:25;13.50;94.00
16243;DHT22;11719;51.052;6.982;2023-04-06T06:48:51;13.60;90.10
16243;DHT22;11719;51.052;6.982;2023-04-06T06:51:17;13.60;94.50
16243;DHT22;11719;51.052;6.982;2023-04-06T06:53:43;13.70;89.90
16243;DHT22;11719;51.052;6.982;2023-04-06T06:56:08;13.70;90.30
16243;DHT22;11719;51.052;6.982;2023-04-06T06:58:34;13.30;92.60
16243;DHT22;11719;51.052;6.982;2023-04-06T07:01:00;13.20;89.50
16243;DHT22;11719;51.052;6.982;2023-04-06T07:03:26;13.20;95.30
16243;DHT22;11719;51.052;6.982;2023-04-06T07:05:52;13.50;92.80
16243;DHT22;11719;51.052;6.982;2023-04-06T07:08:19;13.70;88.20
16243;DHT22;11719;51.052;6.982;2023-04-06T07:10:45;13.40;91.90
16243;DHT22;11719;51.052;6.982;2023-04-06T07:13:11;13.10;90.90
16243;DHT22;11719;51.052;6.982;2023-04-06T07:15:37;13.50;94.70
16243;DHT22;11719;51.052;6.982;2023-04-06T07:18:03;13.90;94.00
16243;DHT22;11719;51.052;6.982;2023-04-06T07:20:29;14.10;81.80
16243;DHT22;11719;51.052;6.982;2023-04-06T07:22:55;14.30;89.00
16243;DHT22;11719;51.052;6.982;2023-04-06T07:25:20;14.30;84.60
16243;DHT22;11719;51.052;6.982;2023-04-06T07:27:46;14.20;86.80
16243;DHT22;11719;51.052;6.982;2023-04-06T07:30:13;14.10;92.90
16243;DHT22;11719;51.052;6.982;2023-04-06T07:32:39;14.40;91.60
16243;DHT22;11719;51.052;6.982;2023-04-06T07:35:05;14.50;90.80
16243;DHT22;11719;51.052;6.982;2023-04-06T07:37:31;14.60;84.20
16243;DHT22;11719;51.052;6.982;2023-04-06T07:39:57;14.50;90.20
16243;DHT22;11719;51.052;6.982;2023-04-06T07:42:22;14.60;92.20
16243;DHT22;11719;51.052;6.982;2023-04-06T07:44:48;14.60;81.20
16243;DHT22;11719;51.052;6.982;2023-04-06T07:47:14;14.40;79.80
16243;DHT22;11719;51.052;6.982;2023-04-06T07:49:40;14.10;91.40
16243;DHT22;11719;51.052;6.982;2023-04-06T07:52:06;14.10;91.10
16243;DHT22;11719;51.052;6.982;2023-04-06T07:54:32;14.40;92.20
16243;DHT22;11719;51.052;6.982;2023-04-06T07:56:57;14.60;84.80
16243;DHT22;11719;51.052;6.982;2023-04-06T07:59:24;14.40;90.20
16243;DHT22;11719;51.052;6.982;2023-04-06T08:01:49;14.70;91.90
16243;DHT22;11719;51.052;6.982;2023-04-06T08:04:15;14.90;91.50
16243;DHT22;11719;51.052;6.982;2023-04-06T08:06:41;15.10;91.20
16243;DHT22;11719;51.052;6.982;2023-04-06T08:09:07;15.20;90.50
16243;DHT22;11719;51.052;6.982;2023-04-06T08:11:33;15.20;88.60
16243;DHT22;11719;51.052;6.982;2023-04-06T08:13:59;15.00;79.10
16243;DHT22;11719;51.052;6.982;2023-04-06T08:16:24;14.80;87.50
16243;DHT22;11719;51.052;6.982;2023-04-06T08:18:50;14.80;84.10
16243;DHT22;11719;51.052;6.982;2023-04-06T08:21:16;14.50;80.70
16243;DHT22;11719;51.052;6.982;2023-04-06T08:23:43;14.20;81.30
16243;DHT22;11719;51.052;6.982;2023-04-06T08:26:09;14.30;91.70
16243;DHT22;11719;51.052;6.982;2023-04-06T08:28:35;14.60;91.60
16243;DHT22;11719;51.052;6.982;2023-04-06T08:31:05;14.70;85.30
16243;DHT22;11719;51.052;6.982;2023-04-06T08:33:31;14.80;90.00
16243;DHT22;11719;51.052;6.982;2023-04-06T08:36:07;14.80;84.80
16243;DHT22;11719;51.052;6.982;2023-04-06T08:38:36;14.50;79.00
16243;DHT22;11719;51.052;6.982;2023-04-06T08:41:09;14.60;89.40
16243;DHT22;11719;51.052;6.982;2023-04-06T08:44:00;14.40;88.90
16243;DHT22;11719;51.052;6.982;2023-04-06T08:46:29;14.40;81.40
16243;DHT22;11719;51.052;6.982;2023-04-06T08:49:02;14.50;84.10
16243;DHT22;11719;51.052;6.982;2023-04-06T08:51:32;14.30;80.30
16243;DHT22;11719;51.052;6.982;2023-04-06T08:53:59;14.10;79.00
16243;DHT22;11719;51.052;6.982;2023-04-06T08:56:27;13.90;79.50
16243;DHT22;11719;51.052;6.982;2023-04-06T08:58:55;13.70;81.50
16243;DHT22;11719;51.052;6.982;2023-04-06T09:01:25;13.80;82.00
16243;DHT22;11719;51.052;6.982;2023-04-06T09:03:56;13.70;80.30
16243;DHT22;11719;51.052;6.982;2023-04-06T09:06:24;13.50;81.00
16243;DHT22;11719;51.052;6.982;2023-04-06T09:08:52;13.50;91.80
16243;DHT22;11719;51.052;6.982;2023-04-06T09:11:18;13.60;83.20
16243;DHT22;11719;51.052;6.982;2023-04-06T09:13:49;13.80;90.90
16243;DHT22;11719;51.052;6.982;2023-04-06T09:16:16;14.00;84.10
16243;DHT22;11719;51.052;6.982;2023-04-06T09:18:43;14.20;84.70
16243;DHT22;11719;51.052;6.982;2023-04-06T09:21:09;14.10;87.70
16243;DHT22;11719;51.052;6.982;2023-04-06T09:23:35;14.10;81.60
16243;DHT22;11719;51.052;6.982;2023-04-06T09:26:06;14.10;83.10
16243;DHT22;11719;51.052;6.982;2023-04-06T09:28:55;14.30;90.90
16243;DHT22;11719;51.052;6.982;2023-04-06T09:33:53;14.80;84.50
16243;DHT22;11719;51.052;6.982;2023-04-06T09:36:19;15.00;90.30
16243;DHT22;11719;51.052;6.982;2023-04-06T09:38:59;15.00;89.50
16243;DHT22;11719;51.052;6.982;2023-04-06T09:41:36;15.00;88.70
16243;DHT22;11719;51.052;6.982;2023-04-06T09:44:12;15.10;84.80
16243;DHT22;11719;51.052;6.982;2023-04-06T09:46:43;15.00;85.30
16243;DHT22;11719;51.052;6.982;2023-04-06T09:49:12;15.10;90.10
16243;DHT22;11719;51.052;6.982;2023-04-06T09:54:22;15.30;90.00
16243;DHT22;11719;51.052;6.982;2023-04-06T09:57:03;15.40;85.00
16243;DHT22;11719;51.052;6.982;2023-04-06T10:02:24;15.60;88.90
16243;DHT22;11719;51.052;6.982;2023-04-06T10:05:05;15.60;89.30
16243;DHT22;11719;51.052;6.982;2023-04-06T10:07:35;15.60;87.50
16243;DHT22;11719;51.052;6.982;2023-04-06T10:10:03;15.60;81.90
16243;DHT22;11719;51.052;6.982;2023-04-06T10:12:30;15.50;85.80
16243;DHT22;11719;51.052;6.982;2023-04-06T10:14:56;15.50;79.60
16243;DHT22;11719;51.052;6.982;2023-04-06T10:17:22;15.50;86.00
16243;DHT22;11719;51.052;6.982;2023-04-06T10:19:59;15.50;85.80
16243;DHT22;11719;51.052;6.982;2023-04-06T10:25:29;15.70;82.10
16243;DHT22;11719;51.052;6.982;2023-04-06T10:28:00;15.60;87.00
16243;DHT22;11719;51.052;6.982;2023-04-06T10:30:28;15.70;88.90
16243;DHT22;11719;51.052;6.982;2023-04-06T10:32:54;15.80;82.70
16243;DHT22;11719;51.052;6.982;2023-04-06T10:35:20;15.70;79.20
16243;DHT22;11719;51.052;6.982;2023-04-06T10:38:06;15.60;78.40
16243;DHT22;11719;51.052;6.982;2023-04-06T10:40:36;15.60;83.60
16243;DHT22;11719;51.052;6.982;2023-04-06T10:43:22;15.60;84.00
16243;DHT22;11719;51.052;6.982;2023-04-06T10:46:00;15.60;85.40
16243;DHT22;11719;51.052;6.982;2023-04-06T10:48:37;15.70;82.60
16243;DHT22;11719;51.052;6.982;2023-04-06T10:51:14;15.60;77.10
16243;DHT22;11719;51.052;6.982;2023-04-06T10:53:45;15.60;83.00
16243;DHT22;11719;51.052;6.982;2023-04-06T10:56:15;15.60;79.80
16243;DHT22;11719;51.052;6.982;2023-04-06T10:58:47;15.50;78.60
16243;DHT22;11719;51.052;6.982;2023-04-06T11:01:18;15.40;81.80
16243;DHT22;11719;51.052;6.982;2023-04-06T11:03:47;15.50;80.90
16243;DHT22;11719;51.052;6.982;2023-04-06T11:06:20;15.50;80.90
16243;DHT22;11719;51.052;6.982;2023-04-06T11:08:51;15.60;85.20
16243;DHT22;11719;51.052;6.982;2023-04-06T11:11:19;15.50;79.70
16243;DHT22;11719;51.052;6.982;2023-04-06T11:13:51;15.50;80.80
16243;DHT22;11719;51.052;6.982;2023-04-06T11:16:29;15.40;80.50
16243;DHT22;11719;51.052;6.982;2023-04-06T11:18:57;15.50;82.10
16243;DHT22;11719;51.052;6.982;2023-04-06T11:21:43;15.60;80.30
16243;DHT22;11719;51.052;6.982;2023-04-06T11:24:17;15.60;81.40
16243;DHT22;11719;51.052;6.982;2023-04-06T11:26:52;15.50;80.30
16243;DHT22;11719;51.052;6.982;2023-04-06T11:29:21;15.60;82.20
16243;DHT22;11719;51.052;6.982;2023-04-06T11:34:21;15.60;79.30
16243;DHT22;11719;51.052;6.982;2023-04-06T11:36:53;15.70;84.00
16243;DHT22;11719;51.052;6.982;2023-04-06T11:39:24;15.80;79.50
16243;DHT22;11719;51.052;6.982;2023-04-06T11:41:54;15.60;81.00
16243;DHT22;11719;51.052;6.982;2023-04-06T11:44:49;15.70;80.00
16243;DHT22;11719;51.052;6.982;2023-04-06T11:47:16;15.60;80.90
16243;DHT22;11719;51.052;6.982;2023-04-06T11:49:44;15.60;81.80
16243;DHT22;11719;51.052;6.982;2023-04-06T11:52:27;15.60;81.20
16243;DHT22;11719;51.052;6.982;2023-04-06T11:54:54;15.70;84.60
16243;DHT22;11719;51.052;6.982;2023-04-06T11:57:22;15.70;81.70
16243;DHT22;11719;51.052;6.982;2023-04-06T11:59:51;15.70;86.30
16243;DHT22;11719;51.052;6.982;2023-04-06T12:02:18;15.70;80.40
16243;DHT22;11719;51.052;6.982;2023-04-06T12:04:44;15.70;82.50
16243;DHT22;11719;51.052;6.982;2023-04-06T12:07:10;15.70;80.90
16243;DHT22;11719;51.052;6.982;2023-04-06T12:09:36;15.70;83.90
16243;DHT22;11719;51.052;6.982;2023-04-06T12:12:03;15.70;80.60
16243;DHT22;11719;51.052;6.982;2023-04-06T12:14:29;15.60;83.10
16243;DHT22;11719;51.052;6.982;2023-04-06T12:16:57;15.70;83.90
16243;DHT22;11719;51.052;6.982;2023-04-06T12:19:23;15.80;81.60
16243;DHT22;11719;51.052;6.982;2023-04-06T12:21:54;15.80;82.70
16243;DHT22;11719;51.052;6.982;2023-04-06T12:24:20;15.80;81.40
16243;DHT22;11719;51.052;6.982;2023-04-06T12:26:46;15.80;79.70
16243;DHT22;11719;51.052;6.982;2023-04-06T12:29:12;15.70;79.80
16243;DHT22;11719;51.052;6.982;2023-04-06T12:31:39;15.70;81.20
16243;DHT22;11719;51.052;6.982;2023-04-06T12:34:06;15.70;80.90
16243;DHT22;11719;51.052;6.982;2023-04-06T12:36:33;15.80;81.90
16243;DHT22;11719;51.052;6.982;2023-04-06T12:38:59;15.70;80.90
16243;DHT22;11719;51.052;6.982;2023-04-06T12:41:27;15.70;80.40
16243;DHT22;11719;51.052;6.982;2023-04-06T12:43:53;15.60;81.00
16243;DHT22;11719;51.052;6.982;2023-04-06T12:46:19;15.60;83.50
16243;DHT22;11719;51.052;6.982;2023-04-06T12:48:46;15.60;85.70
16243;DHT22;11719;51.052;6.982;2023-04-06T12:51:12;15.70;82.80
16243;DHT22;11719;51.052;6.982;2023-04-06T12:53:38;15.60;81.80
16243;DHT22;11719;51.052;6.982;2023-04-06T12:56:15;15.60;82.20
16243;DHT22;11719;51.052;6.982;2023-04-06T12:58:46;15.50;81.70
16243;DHT22;11719;51.052;6.982;2023-04-06T13:01:12;15.40;80.50
16243;DHT22;11719;51.052;6.982;2023-04-06T13:03:42;15.30;82.80
16243;DHT22;11719;51.052;6.982;2023-04-06T13:06:08;15.40;83.60
16243;DHT22;11719;51.052;6.982;2023-04-06T13:08:35;15.50;83.60
16243;DHT22;11719;51.052;6.982;2023-04-06T13:11:04;15.50;82.00
16243;DHT22;11719;51.052;6.982;2023-04-06T13:13:32;15.50;81.60
16243;DHT22;11719;51.052;6.982;2023-04-06T13:16:03;15.50;83.30
16243;DHT22;11719;51.052;6.982;2023-04-06T13:18:31;15.50;83.30
16243;DHT22;11719;51.052;6.982;2023-04-06T13:20:58;15.50;85.50
16243;DHT22;11719;51.052;6.982;2023-04-06T13:23:25;15.50;84.90
16243;DHT22;11719;51.052;6.982;2023-04-06T13:26:02;15.40;83.80
16243;DHT22;11719;51.052;6.982;2023-04-06T13:28:30;15.40;83.40
16243;DHT22;11719;51.052;6.982;2023-04-06T13:30:58;15.20;84.90
16243;DHT22;11719;51.052;6.982;2023-04-06T13:33:25;15.30;86.70
16243;DHT22;11719;51.052;6.982;2023-04-06T13:35:52;15.20;85.70
16243;DHT22;11719;51.052;6.982;2023-04-06T13:38:17;15.30;86.80
16243;DHT22;11719;51.052;6.982;2023-04-06T13:40:43;15.30;86.90
16243;DHT22;11719;51.052;6.982;2023-04-06T13:43:10;15.20;87.10
16243;DHT22;11719;51.052;6.982;2023-04-06T13:45:37;15.20;88.40
16243;DHT22;11719;51.052;6.982;2023-04-06T13:48:03;15.20;89.10
16243;DHT22;11719;51.052;6.982;2023-04-06T13:50:30;15.20;89.40
16243;DHT22;11719;51.052;6.982;2023-04-06T13:52:56;15.30;88.30
16243;DHT22;11719;51.052;6.982;2023-04-06T13:55:22;15.20;90.00
16243;DHT22;11719;51.052;6.982;2023-04-06T13:57:50;15.20;90.10
16243;DHT22;11719;51.052;6.982;2023-04-06T14:00:16;15.10;90.10
16243;DHT22;11719;51.052;6.982;2023-04-06T14:02:43;15.00;90.00
16243;DHT22;11719;51.052;6.982;2023-04-06T14:05:10;14.90;91.00
16243;DHT22;11719;51.052;6.982;2023-04-06T14:07:36;14.90;91.00
16243;DHT22;11719;51.052;6.982;2023-04-06T14:10:03;14.90;90.20
16243;DHT22;11719;51.052;6.982;2023-04-06T14:12:29;14.80;90.40
16243;DHT22;11719;51.052;6.982;2023-04-06T14:14:55;14.80;90.60
16243;DHT22;11719;51.052;6.982;2023-04-06T14:17:21;14.80;90.70
16243;DHT22;11719;51.052;6.982;2023-04-06T14:19:47;14.60;90.30
16243;DHT22;11719;51.052;6.982;2023-04-06T14:22:14;14.50;90.80
16243;DHT22;11719;51.052;6.982;2023-04-06T14:24:40;14.50;91.30
16243;DHT22;11719;51.052;6.982;2023-04-06T14:27:06;14.50;91.70
16243;DHT22;11719;51.052;6.982;2023-04-06T14:29:32;14.50;91.20
16243;DHT22;11719;51.052;6.982;2023-04-06T14:31:58;14.40;91.00
16243;DHT22;11719;51.052;6.982;2023-04-06T14:34:26;14.50;91.60
16243;DHT22;11719;51.052;6.982;2023-04-06T14:36:52;14.50;91.70
16243;DHT22;11719;51.052;6.982;2023-04-06T14:39:18;14.50;92.30
16243;DHT22;11719;51.052;6.982;2023-04-06T14:41:44;14.30;92.60
16243;DHT22;11719;51.052;6.982;2023-04-06T14:44:10;14.40;93.00
16243;DHT22;11719;51.052;6.982;2023-04-06T14:46:38;14.50;93.20
16243;DHT22;11719;51.052;6.982;2023-04-06T14:49:03;14.50;93.80
16243;DHT22;11719;51.052;6.982;2023-04-06T14:51:30;14.60;93.60
16243;DHT22;11719;51.052;6.982;2023-04-06T14:53:56;14.50;93.10
16243;DHT22;11719;51.052;6.982;2023-04-06T14:56:23;14.40;94.10
16243;DHT22;11719;51.052;6.982;2023-04-06T14:58:50;14.30;94.80
16243;DHT22;11719;51.052;6.982;2023-04-06T15:01:18;14.20;95.80
16243;DHT22;11719;51.052;6.982;2023-04-06T15:03:44;14.10;96.10
16243;DHT22;11719;51.052;6.982;2023-04-06T15:06:14;14.00;96.90
16243;DHT22;11719;51.052;6.982;2023-04-06T15:08:42;13.90;97.70
16243;DHT22;11719;51.052;6.982;2023-04-06T15:11:08;13.80;97.50
16243;DHT22;11719;51.052;6.982;2023-04-06T15:13:35;13.80;98.90
16243;DHT22;11719;51.052;6.982;2023-04-06T15:16:01;13.80;99.90
16243;DHT22;11719;51.052;6.982;2023-04-06T15:18:26;13.80;99.50
16243;DHT22;11719;51.052;6.982;2023-04-06T15:20:52;13.90;99.90
16243;DHT22;11719;51.052;6.982;2023-04-06T15:23:18;13.70;99.90
16243;DHT22;11719;51.052;6.982;2023-04-06T15:25:44;13.70;99.90
16243;DHT22;11719;51.052;6.982;2023-04-06T15:28:10;13.60;99.90
16243;DHT22;11719;51.052;6.982;2023-04-06T15:30:36;13.60;99.90
16243;DHT22;11719;51.052;6.982;2023-04-06T15:33:04;13.40;99.90
16243;DHT22;11719;51.052;6.982;2023-04-06T15:35:32;13.40;99.90
16243;DHT22;11719;51.052;6.982;2023-04-06T15:38:05;13.40;99.90
16243;DHT22;11719;51.052;6.982;2023-04-06T15:40:32;13.30;99.90
16243;DHT22;11719;51.052;6.982;2023-04-06T15:42:58;13.30;99.90
16243;DHT22;11719;51.052;6.982;2023-04-06T15:45:24;13.30;99.90
16243;DHT22;11719;51.052;6.982;2023-04-06T15:47:49;13.30;99.90